Time;durP1;ratioP1;P1;durP2;ratioP2;P2;SDS_P1;SDS_P2;PMS_P1;PMS_P2;Temp;Humidity;BMP_temperature;BMP_pressure;BME280_temperature;BME280_humidity;BME280_pressure;Samples;Min_cycle;Max_cycle;Signal;HPM_P1;HPM_P2
2024/02/27 00:01:35;;;;;;;16.30;11.07;;;21.20;56.30;;;;;;5053870;28;20931;-70
2024/02/27 00:04:01;;;;;;;15.10;10.83;;;21.20;56.30;;;;;;5055779;28;20265;-71
2024/02/27 00:06:28;;;;;;;14.33;10.60;;;21.10;56.20;;;;;;5055549;28;20167;-72
2024/02/27 00:08:54;;;;;;;16.60;11.93;;;21.20;56.30;;;;;;5055555;28;20210;-71
2024/02/27 00:11:20;;;;;;;15.53;10.37;;;21.20;56.30;;;;;;5055230;28;20417;-72
2024/02/27 00:13:45;;;;;;;15.73;11.33;;;21.20;56.30;;;;;;5055411;28;20508;-72
2024/02/27 00:16:11;;;;;;;16.30;11.47;;;21.10;56.30;;;;;;5053667;28;20206;-69
2024/02/27 00:18:36;;;;;;;17.07;11.40;;;21.20;56.30;;;;;;5055213;28;20198;-70
2024/02/27 00:21:02;;;;;;;16.00;10.43;;;21.10;56.30;;;;;;5055109;28;20191;-72
2024/02/27 00:23:28;;;;;;;18.23;11.40;;;21.10;56.30;;;;;;5054763;28;20281;-71
2024/02/27 00:25:53;;;;;;;15.73;10.63;;;21.10;56.30;;;;;;5055335;28;20197;-70
2024/02/27 00:28:19;;;;;;;16.00;11.17;;;21.10;56.30;;;;;;5055494;28;20179;-71
2024/02/27 00:30:44;;;;;;;13.97;10.63;;;21.10;56.20;;;;;;5055146;28;20261;-70
2024/02/27 00:33:10;;;;;;;14.27;10.23;;;21.10;56.30;;;;;;5055144;28;20720;-72
2024/02/27 00:35:35;;;;;;;14.00;10.47;;;21.10;56.30;;;;;;5055249;28;20214;-70
2024/02/27 00:38:02;;;;;;;15.77;10.00;;;21.10;56.30;;;;;;5055254;28;20274;-71
2024/02/27 00:40:27;;;;;;;15.67;10.70;;;21.10;56.30;;;;;;5054866;28;20179;-71
2024/02/27 00:42:53;;;;;;;14.60;10.10;;;21.10;56.30;;;;;;5054666;28;20536;-71
2024/02/27 00:45:19;;;;;;;16.53;10.80;;;21.10;56.30;;;;;;5053425;28;20569;-72
2024/02/27 00:47:44;;;;;;;13.30;9.57;;;21.10;56.30;;;;;;5053160;28;20194;-72
2024/02/27 00:50:10;;;;;;;21.00;11.77;;;21.10;56.30;;;;;;5055029;28;20262;-71
2024/02/27 00:52:36;;;;;;;14.30;9.40;;;21.10;56.30;;;;;;5054410;28;20195;-69
2024/02/27 00:55:03;;;;;;;15.80;10.13;;;21.10;56.30;;;;;;5054404;28;20211;-72
2024/02/27 00:57:30;;;;;;;15.73;9.80;;;21.10;56.30;;;;;;5054381;28;20409;-72
2024/02/27 00:59:56;;;;;;;15.30;10.63;;;21.10;56.30;;;;;;5052984;28;20417;-71
2024/02/27 01:02:22;;;;;;;16.93;10.27;;;21.10;56.30;;;;;;5054566;28;20441;-71
2024/02/27 01:04:48;;;;;;;17.67;9.23;;;21.10;56.30;;;;;;5054765;28;20175;-71
2024/02/27 01:07:13;;;;;;;13.13;9.43;;;21.10;56.30;;;;;;5054316;28;20417;-72
2024/02/27 01:09:39;;;;;;;14.97;9.27;;;21.10;56.30;;;;;;5052906;28;20237;-71
2024/02/27 01:12:06;;;;;;;14.23;11.07;;;21.00;56.20;;;;;;5054188;28;20179;-72
2024/02/27 01:14:32;;;;;;;15.67;10.30;;;21.10;56.30;;;;;;5054271;28;20167;-72
2024/02/27 01:16:59;;;;;;;15.73;9.67;;;21.10;56.30;;;;;;5054711;28;20413;-69
2024/02/27 01:19:25;;;;;;;15.70;10.27;;;21.10;56.30;;;;;;5054105;28;20429;-71
2024/02/27 01:21:51;;;;;;;14.90;10.63;;;21.10;56.30;;;;;;5053183;28;20776;-70
2024/02/27 01:24:17;;;;;;;12.97;9.80;;;21.10;56.30;;;;;;5054264;28;20247;-71
2024/02/27 01:26:42;;;;;;;12.57;8.93;;;21.00;56.30;;;;;;5054232;28;20179;-71
2024/02/27 01:29:08;;;;;;;13.30;10.67;;;21.00;56.20;;;;;;5053936;28;20175;-72
2024/02/27 01:31:35;;;;;;;15.30;8.97;;;21.10;56.30;;;;;;5053951;28;20559;-71
2024/02/27 01:34:00;;;;;;;15.37;9.67;;;21.10;56.30;;;;;;5053647;28;20202;-71
2024/02/27 01:36:26;;;;;;;12.10;9.60;;;21.00;56.20;;;;;;5051985;28;20507;-71
2024/02/27 01:38:52;;;;;;;12.83;9.60;;;21.10;56.30;;;;;;5054296;28;20226;-71
2024/02/27 01:41:17;;;;;;;15.90;11.03;;;21.10;56.30;;;;;;5053792;28;20175;-70
2024/02/27 01:43:43;;;;;;;14.20;8.60;;;21.00;56.30;;;;;;5053849;28;20273;-71
2024/02/27 01:46:11;;;;;;;15.30;10.30;;;21.00;56.20;;;;;;5054094;28;20186;-71
2024/02/27 01:48:37;;;;;;;15.20;9.87;;;21.00;56.20;;;;;;5053524;28;20189;-71
2024/02/27 01:51:03;;;;;;;11.00;8.60;;;21.00;56.20;;;;;;5053997;28;20417;-71
2024/02/27 01:53:30;;;;;;;10.90;8.33;;;21.10;56.30;;;;;;5053383;28;20201;-71
2024/02/27 01:55:55;;;;;;;11.83;10.10;;;21.00;56.20;;;;;;5053360;28;20461;-71
2024/02/27 01:58:22;;;;;;;13.63;10.03;;;21.00;56.30;;;;;;5053755;28;20425;-71
2024/02/27 02:00:48;;;;;;;13.13;9.23;;;21.10;56.30;;;;;;5053408;28;20202;-71
2024/02/27 02:03:17;;;;;;;16.53;10.17;;;21.10;56.90;;;;;;5053272;28;20438;-72
2024/02/27 02:05:44;;;;;;;14.67;9.37;;;21.00;56.20;;;;;;5053315;28;20421;-71
2024/02/27 02:08:09;;;;;;;12.80;8.87;;;21.00;56.20;;;;;;5053435;28;20508;-72
2024/02/27 02:10:35;;;;;;;13.37;8.37;;;21.00;56.20;;;;;;5053585;28;20835;-71
2024/02/27 02:13:01;;;;;;;13.50;10.00;;;21.00;56.20;;;;;;5051825;28;20620;-70
2024/02/27 02:15:27;;;;;;;15.10;9.73;;;21.00;56.20;;;;;;5053366;28;20260;-71
2024/02/27 02:17:53;;;;;;;10.90;8.97;;;21.00;56.20;;;;;;5053742;28;20940;-71
2024/02/27 02:20:18;;;;;;;15.50;9.87;;;21.00;56.20;;;;;;5051968;28;20169;-71
2024/02/27 02:22:44;;;;;;;12.03;8.40;;;21.00;56.20;;;;;;5053415;28;20233;-71
2024/02/27 02:25:14;;;;;;;13.77;9.47;;;21.00;56.20;;;;;;5053571;28;20179;-71
2024/02/27 02:27:44;;;;;;;14.40;9.93;;;21.00;56.20;;;;;;5053008;28;20421;-71
2024/02/27 02:30:11;;;;;;;13.50;9.40;;;21.00;56.20;;;;;;5053075;28;20943;-69
2024/02/27 02:32:46;;;;;;;14.43;10.20;;;21.00;56.20;;;;;;5053938;28;20440;-71
2024/02/27 02:35:11;;;;;;;12.87;9.63;;;21.00;56.20;;;;;;5056991;28;20452;-71
2024/02/27 02:37:37;;;;;;;12.90;8.77;;;21.00;56.20;;;;;;5056971;28;20760;-70
2024/02/27 02:40:03;;;;;;;14.57;9.30;;;21.00;56.20;;;;;;5056977;28;20167;-71
2024/02/27 02:42:28;;;;;;;12.17;8.90;;;21.00;56.20;;;;;;5057175;28;20854;-71
2024/02/27 02:44:54;;;;;;;11.53;9.33;;;21.00;56.20;;;;;;5056766;28;20179;-70
2024/02/27 02:47:19;;;;;;;12.23;8.90;;;21.00;56.20;;;;;;5056566;28;20167;-71
2024/02/27 02:49:45;;;;;;;11.40;8.40;;;21.00;56.20;;;;;;5055389;28;20714;-72
2024/02/27 02:52:11;;;;;;;13.90;9.63;;;21.00;56.20;;;;;;5056875;28;20205;-71
2024/02/27 02:54:36;;;;;;;12.60;8.90;;;21.00;56.20;;;;;;5056560;28;20949;-70
2024/02/27 02:57:02;;;;;;;11.07;8.97;;;21.00;56.20;;;;;;5056701;28;20174;-72
2024/02/27 02:59:27;;;;;;;11.90;9.30;;;21.00;56.20;;;;;;5056709;28;20693;-72
2024/02/27 03:01:53;;;;;;;11.13;8.57;;;21.00;56.20;;;;;;5055869;28;20260;-70
2024/02/27 03:04:18;;;;;;;13.13;9.03;;;21.00;56.20;;;;;;5056770;28;20197;-71
2024/02/27 03:06:44;;;;;;;11.40;8.80;;;21.00;56.20;;;;;;5056843;28;20650;-72
2024/02/27 03:09:10;;;;;;;10.87;8.07;;;21.00;56.20;;;;;;5056443;28;20178;-71
2024/02/27 03:11:35;;;;;;;12.57;8.53;;;21.00;56.20;;;;;;5056210;28;20650;-71
2024/02/27 03:14:03;;;;;;;15.10;9.73;;;21.00;56.20;;;;;;5056244;28;20210;-70
2024/02/27 03:16:28;;;;;;;12.33;7.67;;;21.00;56.20;;;;;;5055701;28;20211;-71
2024/02/27 03:18:54;;;;;;;12.87;9.70;;;21.00;56.20;;;;;;5055940;28;20456;-71
2024/02/27 03:21:20;;;;;;;12.20;7.43;;;21.00;56.20;;;;;;5056122;28;20222;-71
2024/02/27 03:23:45;;;;;;;10.50;9.03;;;21.00;56.30;;;;;;5054226;28;20207;-72
2024/02/27 03:26:17;;;;;;;13.30;8.80;;;21.00;56.30;;;;;;5054289;28;20179;-72
2024/02/27 03:28:43;;;;;;;11.70;8.40;;;21.00;56.20;;;;;;5055976;28;20262;-71
2024/02/27 03:31:09;;;;;;;12.30;8.67;;;21.00;56.30;;;;;;5056374;28;20931;-71
2024/02/27 03:33:35;;;;;;;9.40;7.80;;;20.90;56.20;;;;;;5055780;28;20191;-72
2024/02/27 03:36:04;;;;;;;12.37;8.47;;;21.00;56.30;;;;;;5055784;28;20552;-70
2024/02/27 03:38:31;;;;;;;10.80;7.50;;;20.90;56.20;;;;;;5055839;28;20669;-71
2024/02/27 03:40:57;;;;;;;14.30;8.50;;;20.90;56.20;;;;;;5055870;28;20412;-71
2024/02/27 03:43:22;;;;;;;10.10;8.03;;;21.00;56.30;;;;;;5055642;28;20434;-71
2024/02/27 03:45:48;;;;;;;9.80;7.70;;;20.90;56.20;;;;;;5055853;28;20224;-71
2024/02/27 03:48:14;;;;;;;11.50;8.10;;;20.90;56.20;;;;;;5055892;28;20171;-71
2024/02/27 03:50:39;;;;;;;13.10;8.63;;;20.90;56.20;;;;;;5055595;28;20182;-71
2024/02/27 03:53:05;;;;;;;13.67;9.00;;;20.90;56.20;;;;;;5055632;28;20601;-72
2024/02/27 03:55:30;;;;;;;11.10;7.77;;;20.90;56.20;;;;;;5055374;28;20199;-70
2024/02/27 03:57:56;;;;;;;10.53;7.77;;;20.90;56.20;;;;;;5055313;28;20167;-72
2024/02/27 04:00:22;;;;;;;10.83;7.87;;;20.90;56.20;;;;;;5054949;28;20259;-71
2024/02/27 04:02:47;;;;;;;11.53;8.93;;;20.90;56.20;;;;;;5055174;28;20202;-71
2024/02/27 04:05:13;;;;;;;9.90;7.57;;;20.90;56.20;;;;;;5055633;28;20414;-71
2024/02/27 04:07:39;;;;;;;9.50;8.07;;;21.00;56.30;;;;;;5055512;28;20550;-71
2024/02/27 04:10:05;;;;;;;11.43;8.40;;;21.00;56.30;;;;;;5055668;28;20706;-71
2024/02/27 04:12:30;;;;;;;10.70;8.07;;;20.90;56.20;;;;;;5055009;28;20230;-72
2024/02/27 04:14:56;;;;;;;8.93;7.73;;;20.90;56.20;;;;;;5054698;28;20500;-70
2024/02/27 04:17:21;;;;;;;11.00;7.97;;;21.00;56.30;;;;;;5054953;28;20600;-70
2024/02/27 04:19:47;;;;;;;11.40;8.60;;;20.90;56.20;;;;;;5055034;28;20233;-71
2024/02/27 04:22:13;;;;;;;12.53;8.30;;;20.90;56.20;;;;;;5053422;28;20195;-71
2024/02/27 04:24:39;;;;;;;11.23;8.17;;;20.90;56.20;;;;;;5054822;28;20171;-71
2024/02/27 04:27:05;;;;;;;11.60;8.03;;;20.90;56.20;;;;;;5054912;28;20401;-72
2024/02/27 04:29:30;;;;;;;12.10;8.10;;;20.90;56.20;;;;;;5053456;28;20974;-71
2024/02/27 04:31:56;;;;;;;11.67;7.23;;;20.90;56.20;;;;;;5054098;28;20235;-72
2024/02/27 04:34:22;;;;;;;11.27;7.43;;;20.90;56.20;;;;;;5054089;28;20175;-69
2024/02/27 04:36:47;;;;;;;9.10;7.13;;;20.90;56.20;;;;;;5054587;28;20234;-72
2024/02/27 04:39:16;;;;;;;9.73;7.80;;;20.90;56.20;;;;;;5053961;28;20544;-68
2024/02/27 04:41:42;;;;;;;12.57;8.53;;;20.90;56.20;;;;;;5054326;28;20167;-72
2024/02/27 04:44:10;;;;;;;11.80;8.57;;;20.90;56.20;;;;;;5054609;28;21007;-71
2024/02/27 04:46:35;;;;;;;10.63;8.63;;;20.90;56.20;;;;;;5054084;28;20174;-71
2024/02/27 04:49:01;;;;;;;9.83;7.83;;;20.90;56.20;;;;;;5054462;28;20417;-71
2024/02/27 04:51:27;;;;;;;9.40;7.00;;;20.90;56.20;;;;;;5054057;28;20206;-72
2024/02/27 04:53:52;;;;;;;11.10;7.17;;;20.90;56.20;;;;;;5054524;28;20220;-70
2024/02/27 04:56:18;;;;;;;9.67;7.60;;;20.90;56.20;;;;;;5053776;28;20191;-71
2024/02/27 04:58:43;;;;;;;9.43;7.07;;;20.90;56.20;;;;;;5053794;28;20271;-71
2024/02/27 05:01:11;;;;;;;9.43;6.60;;;20.90;56.20;;;;;;5054015;28;20175;-71
2024/02/27 05:03:37;;;;;;;10.00;7.40;;;20.90;56.20;;;;;;5054503;28;20267;-71
2024/02/27 05:06:03;;;;;;;11.67;8.00;;;20.90;56.20;;;;;;5054428;28;20440;-70
2024/02/27 05:08:28;;;;;;;11.40;7.80;;;20.90;56.20;;;;;;5054120;28;20186;-71
2024/02/27 05:10:54;;;;;;;9.83;7.27;;;20.90;56.20;;;;;;5054446;28;20418;-71
2024/02/27 05:13:20;;;;;;;10.20;7.00;;;20.90;56.20;;;;;;5052884;28;20292;-72
2024/02/27 05:15:46;;;;;;;9.60;7.00;;;20.90;56.20;;;;;;5054027;28;20202;-69
2024/02/27 05:18:11;;;;;;;7.77;6.00;;;20.90;56.20;;;;;;5051431;28;20333;-71
2024/02/27 05:20:37;;;;;;;8.63;7.30;;;20.90;56.20;;;;;;5053682;28;20437;-71
2024/02/27 05:23:03;;;;;;;9.30;7.30;;;20.90;56.20;;;;;;5053663;28;20195;-71
2024/02/27 05:25:28;;;;;;;9.90;7.00;;;20.90;56.20;;;;;;5053420;28;20600;-71
2024/02/27 05:27:54;;;;;;;10.23;7.37;;;20.90;56.20;;;;;;5053584;28;20183;-71
2024/02/27 05:30:19;;;;;;;9.10;6.73;;;21.00;56.20;;;;;;5053976;28;20174;-71
2024/02/27 05:32:45;;;;;;;10.97;8.67;;;21.00;56.20;;;;;;5053644;28;20241;-71
2024/02/27 05:35:11;;;;;;;11.83;10.30;;;21.00;56.10;;;;;;5053832;28;20253;-70
2024/02/27 05:37:36;;;;;;;12.00;9.33;;;20.90;55.70;;;;;;5053547;28;20178;-71
2024/02/27 05:40:05;;;;;;;12.40;9.30;;;20.90;55.20;;;;;;5053261;28;20581;-70
2024/02/27 05:42:31;;;;;;;9.97;8.20;;;20.90;55.00;;;;;;5052922;28;20183;-71
2024/02/27 05:44:56;;;;;;;11.60;9.23;;;20.90;55.10;;;;;;5053474;28;20453;-72
2024/02/27 05:47:22;;;;;;;9.30;7.43;;;20.90;55.30;;;;;;5053725;28;20179;-71
2024/02/27 05:49:47;;;;;;;7.43;6.50;;;20.90;55.40;;;;;;5051990;28;20187;-72
2024/02/27 05:52:13;;;;;;;10.30;7.23;;;20.90;55.40;;;;;;5052002;28;20186;-71
2024/02/27 05:54:39;;;;;;;11.20;8.23;;;20.90;55.50;;;;;;5053981;28;20628;-70
2024/02/27 05:57:05;;;;;;;8.60;7.40;;;20.90;55.60;;;;;;5053156;28;20183;-70
2024/02/27 05:59:31;;;;;;;7.97;6.80;;;20.90;55.60;;;;;;5053654;28;20408;-71
2024/02/27 06:01:57;;;;;;;8.90;7.00;;;20.90;55.60;;;;;;5053172;28;20410;-70
2024/02/27 06:04:23;;;;;;;9.10;6.63;;;20.90;55.70;;;;;;5053783;28;20167;-71
2024/02/27 06:06:48;;;;;;;9.43;7.40;;;20.90;55.70;;;;;;5054130;28;20436;-71
2024/02/27 06:09:14;;;;;;;8.77;6.33;;;20.90;55.70;;;;;;5057466;28;20705;-71
2024/02/27 06:11:39;;;;;;;8.77;6.80;;;20.90;55.80;;;;;;5056993;28;20178;-71
2024/02/27 06:14:05;;;;;;;9.10;7.53;;;20.90;55.80;;;;;;5057718;28;20199;-71
2024/02/27 06:16:31;;;;;;;8.00;7.20;;;21.00;55.80;;;;;;5056390;28;20700;-68
2024/02/27 06:18:56;;;;;;;8.83;6.87;;;20.90;55.80;;;;;;5055479;28;20187;-68
2024/02/27 06:24:06;;;;;;;8.10;6.67;;;21.00;55.90;;;;;;5055245;28;20696;-68
2024/02/27 06:26:32;;;;;;;9.00;7.03;;;21.00;56.00;;;;;;5056019;28;20500;-68
2024/02/27 06:28:57;;;;;;;9.80;6.93;;;20.90;55.90;;;;;;5053574;28;20175;-69
2024/02/27 06:31:23;;;;;;;8.73;6.97;;;20.90;55.90;;;;;;5054906;28;20723;-68
2024/02/27 06:33:48;;;;;;;7.13;6.13;;;20.90;55.90;;;;;;5054846;28;20298;-69
2024/02/27 06:36:14;;;;;;;7.83;6.27;;;21.00;56.00;;;;;;5054682;28;20583;-69
2024/02/27 06:38:40;;;;;;;6.73;5.40;;;21.00;55.90;;;;;;5055025;28;20198;-67
2024/02/27 06:41:05;;;;;;;6.60;5.53;;;21.00;55.90;;;;;;5054695;28;20595;-68
2024/02/27 06:43:31;;;;;;;7.20;6.10;;;21.00;55.90;;;;;;5054709;28;20270;-68
2024/02/27 06:45:56;;;;;;;7.27;6.57;;;21.00;55.90;;;;;;5054461;28;20175;-68
2024/02/27 06:48:22;;;;;;;8.30;6.50;;;21.10;55.90;;;;;;5054687;28;20317;-68
2024/02/27 06:50:51;;;;;;;8.60;6.37;;;21.10;55.90;;;;;;5054555;28;20174;-69
2024/02/27 06:53:17;;;;;;;7.27;6.13;;;21.10;55.90;;;;;;5054450;28;20264;-68
2024/02/27 06:55:42;;;;;;;7.70;6.37;;;21.10;55.90;;;;;;5054459;28;20986;-68
2024/02/27 06:58:08;;;;;;;8.60;5.73;;;21.10;55.90;;;;;;5054637;28;20213;-68
2024/02/27 07:00:34;;;;;;;7.50;6.73;;;21.10;55.90;;;;;;5055392;28;20674;-65
2024/02/27 07:02:59;;;;;;;9.40;7.00;;;21.10;55.90;;;;;;5055411;28;20201;-68
2024/02/27 07:05:26;;;;;;;7.10;5.90;;;21.10;55.90;;;;;;5054430;28;20202;-68
2024/02/27 07:07:51;;;;;;;7.53;6.17;;;21.10;55.90;;;;;;5054648;28;20199;-68
2024/02/27 07:10:17;;;;;;;7.40;5.90;;;21.10;55.90;;;;;;5054116;28;20506;-67
2024/02/27 07:12:43;;;;;;;7.57;6.33;;;21.10;55.80;;;;;;5053818;28;20195;-69
2024/02/27 07:15:09;;;;;;;8.33;6.00;;;21.20;55.90;;;;;;5054331;28;20569;-68
2024/02/27 07:17:35;;;;;;;6.93;6.03;;;21.20;55.90;;;;;;5053993;28;20172;-68
2024/02/27 07:20:03;;;;;;;9.50;7.57;;;21.20;55.90;;;;;;5053378;28;20404;-68
2024/02/27 07:22:29;;;;;;;8.60;6.40;;;21.20;55.90;;;;;;5053794;28;20211;-67
2024/02/27 07:24:55;;;;;;;9.53;6.97;;;21.20;55.90;;;;;;5054319;28;20410;-68
2024/02/27 07:27:20;;;;;;;7.07;5.60;;;21.20;56.00;;;;;;5053934;28;20907;-69
2024/02/27 07:29:46;;;;;;;7.57;5.70;;;21.20;56.00;;;;;;5053987;28;20233;-68
2024/02/27 07:32:12;;;;;;;6.93;5.80;;;21.20;56.00;;;;;;5053621;28;20171;-68
2024/02/27 07:34:37;;;;;;;8.13;6.60;;;21.20;56.00;;;;;;5053784;28;20660;-68
2024/02/27 07:37:03;;;;;;;7.70;6.30;;;21.20;56.00;;;;;;5053457;28;21037;-69
2024/02/27 07:39:29;;;;;;;7.93;6.50;;;21.20;56.00;;;;;;5054247;28;20186;-68
2024/02/27 07:41:54;;;;;;;7.87;6.43;;;21.20;56.00;;;;;;5052468;28;20171;-69
2024/02/27 07:44:20;;;;;;;8.03;5.93;;;21.20;56.00;;;;;;5051702;28;20689;-69
2024/02/27 07:46:46;;;;;;;7.33;5.90;;;21.20;56.00;;;;;;5053433;28;20182;-68
2024/02/27 07:49:12;;;;;;;7.10;5.63;;;21.20;56.10;;;;;;5053504;28;20791;-68
2024/02/27 07:51:37;;;;;;;7.43;5.30;;;21.20;56.00;;;;;;5054014;28;20179;-68
2024/02/27 07:54:04;;;;;;;7.00;6.10;;;21.20;56.00;;;;;;5053233;28;20201;-68
2024/02/27 07:56:31;;;;;;;6.43;5.50;;;21.20;56.00;;;;;;5051707;28;20207;-69
2024/02/27 07:58:57;;;;;;;7.93;5.97;;;21.20;56.00;;;;;;5053327;28;20409;-69
2024/02/27 08:01:24;;;;;;;6.97;5.60;;;21.20;56.00;;;;;;5053529;28;20410;-68
2024/02/27 08:03:51;;;;;;;7.90;5.93;;;21.20;56.00;;;;;;5053161;28;20437;-68
2024/02/27 08:06:18;;;;;;;6.00;5.40;;;21.20;56.40;;;;;;5053013;28;20428;-68
2024/02/27 08:08:43;;;;;;;7.87;5.80;;;21.20;56.10;;;;;;5052314;28;21159;-68
2024/02/27 08:11:10;;;;;;;6.70;5.30;;;21.20;56.00;;;;;;5052900;28;20507;-69
2024/02/27 08:13:35;;;;;;;7.77;5.53;;;21.20;56.10;;;;;;5053060;28;20221;-68
2024/02/27 08:16:01;;;;;;;8.17;6.77;;;21.20;56.10;;;;;;5051366;28;20931;-68
2024/02/27 08:18:27;;;;;;;7.97;6.00;;;21.20;56.00;;;;;;5052762;28;20179;-68
2024/02/27 08:20:52;;;;;;;5.93;5.00;;;21.20;56.10;;;;;;5052765;28;20695;-68
2024/02/27 08:23:19;;;;;;;7.13;5.70;;;21.20;56.10;;;;;;5053090;28;20258;-69
2024/02/27 08:25:44;;;;;;;6.70;6.00;;;21.20;56.10;;;;;;5053589;28;20742;-69
2024/02/27 08:28:10;;;;;;;7.27;5.60;;;21.20;56.10;;;;;;5052412;28;20516;-67
2024/02/27 08:30:36;;;;;;;5.87;5.23;;;21.20;56.10;;;;;;5053176;28;20401;-69
2024/02/27 08:33:03;;;;;;;6.57;5.90;;;21.20;56.10;;;;;;5052246;28;20257;-68
2024/02/27 08:35:29;;;;;;;7.53;5.30;;;21.20;56.10;;;;;;5052701;28;21060;-68
2024/02/27 08:37:55;;;;;;;7.30;5.43;;;21.20;56.10;;;;;;5052476;28;20927;-68
2024/02/27 08:40:21;;;;;;;5.33;4.83;;;21.30;56.20;;;;;;5052526;28;20480;-68
2024/02/27 08:42:46;;;;;;;6.10;5.50;;;21.20;56.10;;;;;;5052250;28;20230;-68
2024/02/27 08:45:12;;;;;;;6.97;5.20;;;21.20;56.10;;;;;;5052475;28;20195;-68
2024/02/27 08:47:38;;;;;;;7.37;5.50;;;21.20;56.10;;;;;;5052396;28;20171;-68
2024/02/27 08:50:05;;;;;;;8.47;5.53;;;21.20;56.10;;;;;;5052269;28;20178;-68
2024/02/27 08:52:32;;;;;;;7.10;5.87;;;21.20;56.10;;;;;;5052281;28;20239;-68
2024/02/27 08:54:57;;;;;;;7.53;6.17;;;21.20;56.10;;;;;;5051876;28;20417;-68
2024/02/27 08:57:23;;;;;;;8.70;5.57;;;21.30;56.20;;;;;;5052312;28;20490;-69
2024/02/27 08:59:49;;;;;;;5.93;4.90;;;21.30;56.20;;;;;;5052504;28;20179;-68
2024/02/27 09:02:15;;;;;;;6.87;5.60;;;21.30;56.20;;;;;;5051847;28;20185;-68
2024/02/27 09:04:41;;;;;;;5.80;5.17;;;21.30;56.20;;;;;;5051961;28;20175;-69
2024/02/27 09:07:06;;;;;;;6.20;5.50;;;21.30;56.20;;;;;;5052388;28;20425;-67
2024/02/27 09:09:32;;;;;;;5.90;5.30;;;21.30;56.20;;;;;;5051966;28;20183;-67
2024/02/27 09:11:58;;;;;;;6.53;5.83;;;21.30;56.20;;;;;;5051709;28;20185;-68
2024/02/27 09:14:23;;;;;;;6.30;5.10;;;21.30;56.20;;;;;;5051891;28;20643;-69
2024/02/27 09:16:49;;;;;;;6.40;5.07;;;21.30;56.30;;;;;;5051930;28;20626;-69
2024/02/27 09:19:15;;;;;;;6.30;5.30;;;21.30;56.30;;;;;;5051514;28;20658;-69
2024/02/27 09:21:44;;;;;;;5.87;4.80;;;21.30;56.30;;;;;;5051901;28;20688;-69
2024/02/27 09:24:10;;;;;;;7.33;5.57;;;21.30;56.30;;;;;;5051441;28;20234;-69
2024/02/27 09:26:35;;;;;;;6.90;5.07;;;21.30;56.30;;;;;;5051442;28;20409;-68
2024/02/27 09:29:02;;;;;;;5.80;5.20;;;21.30;56.30;;;;;;5051710;28;20852;-67
2024/02/27 09:31:28;;;;;;;5.90;4.80;;;21.30;56.30;;;;;;5051559;28;20170;-68
2024/02/27 09:33:53;;;;;;;6.10;5.50;;;21.30;56.30;;;;;;5051962;28;20433;-68
2024/02/27 09:36:19;;;;;;;5.37;4.87;;;21.30;56.30;;;;;;5051595;28;20998;-68
2024/02/27 09:38:45;;;;;;;6.77;5.00;;;21.30;56.30;;;;;;5051571;28;20251;-69
2024/02/27 09:41:22;;;;;;;6.40;5.17;;;21.30;56.30;;;;;;5052675;28;20175;-67
2024/02/27 09:43:53;;;;;;;6.33;5.03;;;21.30;56.30;;;;;;5058208;28;20240;-68
2024/02/27 09:46:22;;;;;;;6.13;5.50;;;21.30;56.30;;;;;;5058366;28;20502;-68
2024/02/27 09:48:51;;;;;;;7.50;5.27;;;21.30;56.30;;;;;;5058170;28;20409;-69
2024/02/27 09:51:18;;;;;;;6.47;4.60;;;21.30;56.30;;;;;;5058072;28;20420;-68
2024/02/27 09:53:46;;;;;;;5.70;5.10;;;21.30;56.30;;;;;;5057997;28;20433;-68
2024/02/27 09:56:15;;;;;;;6.20;4.80;;;21.30;56.30;;;;;;5057970;28;20480;-69
2024/02/27 09:58:42;;;;;;;5.60;5.10;;;21.30;56.30;;;;;;5058161;28;20409;-68
2024/02/27 10:01:12;;;;;;;6.90;5.80;;;21.30;56.30;;;;;;5058318;28;20435;-68
2024/02/27 10:03:41;;;;;;;7.00;5.23;;;21.30;56.40;;;;;;5058255;28;20421;-67
2024/02/27 10:06:10;;;;;;;6.23;5.17;;;21.30;56.40;;;;;;5058120;28;20982;-68
2024/02/27 10:08:40;;;;;;;6.27;5.70;;;21.30;56.30;;;;;;5058101;28;20904;-68
2024/02/27 10:11:06;;;;;;;6.13;5.50;;;21.30;56.30;;;;;;5057982;28;20431;-68
2024/02/27 10:13:32;;;;;;;7.73;5.30;;;21.30;56.40;;;;;;5057805;28;20437;-69
2024/02/27 10:16:00;;;;;;;5.43;4.50;;;21.30;56.40;;;;;;5057699;28;20441;-68
2024/02/27 10:18:25;;;;;;;5.23;4.70;;;21.30;56.40;;;;;;5058185;28;20659;-68
2024/02/27 10:20:51;;;;;;;5.47;4.97;;;21.30;56.40;;;;;;5056973;28;20423;-69
2024/02/27 10:23:16;;;;;;;5.50;4.93;;;21.30;56.40;;;;;;5058036;28;20201;-68
2024/02/27 10:25:44;;;;;;;5.23;4.50;;;21.30;56.40;;;;;;5057912;28;20280;-67
2024/02/27 10:28:10;;;;;;;6.37;4.80;;;21.30;56.40;;;;;;5058091;28;20432;-67
2024/02/27 10:30:36;;;;;;;5.57;4.80;;;21.30;56.40;;;;;;5058297;28;20893;-68
2024/02/27 10:33:02;;;;;;;6.57;4.63;;;21.30;56.40;;;;;;5057651;28;20194;-68
2024/02/27 10:35:31;;;;;;;5.80;4.80;;;21.30;56.50;;;;;;5057844;28;20518;-68
2024/02/27 10:37:57;;;;;;;5.67;5.10;;;21.30;56.40;;;;;;5057932;28;20167;-68
2024/02/27 10:40:22;;;;;;;7.33;5.20;;;21.30;56.40;;;;;;5058125;28;20909;-69
2024/02/27 10:42:48;;;;;;;7.07;5.43;;;21.30;56.40;;;;;;5057611;28;20277;-69
2024/02/27 10:45:13;;;;;;;5.80;5.00;;;21.30;56.40;;;;;;5057889;28;20267;-69
2024/02/27 10:47:42;;;;;;;4.97;4.47;;;21.20;56.30;;;;;;5057413;28;20175;-69
2024/02/27 10:50:09;;;;;;;6.90;4.93;;;21.30;56.40;;;;;;5057917;28;20564;-69
2024/02/27 10:52:36;;;;;;;5.00;4.37;;;21.20;56.30;;;;;;5055238;28;20456;-68
2024/02/27 10:55:02;;;;;;;5.23;4.30;;;21.20;56.30;;;;;;5054368;28;20443;-67
2024/02/27 10:57:29;;;;;;;6.33;4.90;;;21.20;56.40;;;;;;5054867;28;20800;-68
2024/02/27 10:59:55;;;;;;;5.37;4.87;;;21.20;56.40;;;;;;5054509;28;20413;-69
2024/02/27 11:02:20;;;;;;;6.67;4.50;;;21.20;56.40;;;;;;5055068;28;20425;-69
2024/02/27 11:04:48;;;;;;;4.73;4.17;;;21.30;56.50;;;;;;5053951;28;20171;-69
2024/02/27 11:07:17;;;;;;;6.53;5.10;;;21.20;56.40;;;;;;5055138;28;20183;-68
2024/02/27 11:09:44;;;;;;;4.87;4.37;;;21.20;56.40;;;;;;5055031;28;20425;-69
2024/02/27 11:12:14;;;;;;;6.63;4.37;;;21.20;56.30;;;;;;5054639;28;20432;-69
2024/02/27 11:14:45;;;;;;;6.00;4.50;;;21.20;56.40;;;;;;5054370;28;20896;-69
2024/02/27 11:17:18;;;;;;;6.00;5.23;;;21.20;56.40;;;;;;5054551;28;20453;-69
2024/02/27 11:19:48;;;;;;;5.87;4.83;;;21.20;56.40;;;;;;5054526;28;21282;-69
2024/02/27 11:22:17;;;;;;;8.97;5.80;;;21.20;56.50;;;;;;5054636;28;20409;-70
2024/02/27 11:24:45;;;;;;;7.20;5.00;;;21.20;56.40;;;;;;5054399;28;20489;-68
2024/02/27 11:27:14;;;;;;;9.90;5.17;;;21.20;56.40;;;;;;5054133;28;20438;-69
2024/02/27 11:29:41;;;;;;;5.60;4.53;;;21.20;56.40;;;;;;5054348;28;20775;-69
2024/02/27 11:32:08;;;;;;;4.30;3.90;;;21.20;56.50;;;;;;5053752;28;20782;-69
2024/02/27 11:34:36;;;;;;;5.10;4.43;;;21.20;56.50;;;;;;5053885;28;20915;-70
2024/02/27 11:37:21;;;;;;;6.13;4.60;;;21.20;56.40;;;;;;5052673;28;20995;-69
2024/02/27 11:39:47;;;;;;;4.83;4.17;;;21.20;56.40;;;;;;5054358;28;20875;-69
2024/02/27 11:42:40;;;;;;;4.50;3.87;;;21.20;57.00;;;;;;5054195;28;20397;-70
2024/02/27 11:45:08;;;;;;;5.23;4.47;;;21.20;56.40;;;;;;5050845;28;20421;-69
2024/02/27 11:47:51;;;;;;;6.43;4.73;;;21.20;56.40;;;;;;5054575;28;20932;-70
2024/02/27 11:50:34;;;;;;;6.63;4.90;;;21.20;56.40;;;;;;5053771;28;20458;-69
2024/02/27 11:53:24;;;;;;;4.73;4.33;;;21.20;56.40;;;;;;5054001;28;20488;-70
2024/02/27 11:55:53;;;;;;;7.63;5.50;;;21.20;56.40;;;;;;5053669;28;20463;-69
2024/02/27 11:58:20;;;;;;;5.63;4.93;;;21.20;56.50;;;;;;5053825;28;20414;-69
2024/02/27 12:00:46;;;;;;;5.23;4.20;;;21.20;56.50;;;;;;5053664;28;20406;-69
2024/02/27 12:03:12;;;;;;;4.47;3.93;;;21.20;56.50;;;;;;5053901;28;20447;-68
2024/02/27 12:05:39;;;;;;;6.17;4.80;;;21.20;56.50;;;;;;5053602;28;20479;-69
2024/02/27 12:08:05;;;;;;;5.20;4.43;;;21.20;56.40;;;;;;5053238;28;20183;-69
2024/02/27 12:10:31;;;;;;;5.60;3.93;;;21.20;56.40;;;;;;5053626;28;20409;-69
2024/02/27 12:12:57;;;;;;;6.70;4.53;;;21.30;56.50;;;;;;5053314;28;20869;-68
2024/02/27 12:15:23;;;;;;;7.23;5.27;;;21.20;56.40;;;;;;5052961;28;20917;-69
2024/02/27 12:17:49;;;;;;;5.33;4.77;;;21.20;56.40;;;;;;5053147;28;20187;-69
2024/02/27 12:20:15;;;;;;;6.33;5.00;;;21.20;56.40;;;;;;5053315;28;20983;-70
2024/02/27 12:22:42;;;;;;;4.87;3.63;;;21.20;56.40;;;;;;5053173;28;20436;-69
2024/02/27 12:25:08;;;;;;;5.70;4.50;;;21.30;56.50;;;;;;5053019;28;20193;-69
2024/02/27 12:27:36;;;;;;;6.93;4.33;;;21.20;56.40;;;;;;5053005;28;20416;-69
2024/02/27 12:30:12;;;;;;;5.70;4.73;;;21.20;56.40;;;;;;5052550;28;20904;-70
2024/02/27 12:32:43;;;;;;;5.37;4.50;;;21.30;56.50;;;;;;5053327;28;20970;-70
2024/02/27 12:35:11;;;;;;;4.60;4.20;;;21.20;56.40;;;;;;5051701;28;20420;-70
2024/02/27 12:37:48;;;;;;;4.80;4.27;;;21.20;57.00;;;;;;5053176;28;20420;-70
2024/02/27 12:40:15;;;;;;;4.40;4.00;;;21.20;56.40;;;;;;5053595;28;21005;-69